's Gravenwezel heliport

EBAS · Antwerpen, Flanders, 比利时

2024年7月18日 08:002024年7月18日 17:00有效
时间
星期四
08:00
星期四
09:00
星期四
10:00
星期四
11:00
星期四
12:00
星期四
13:00
星期四
14:00
星期四
15:00
星期四
16:00
代码
VFR
VFR
VFR
VFR
VFR
VFR
VFR
VFR
VFR
天气
天空晴朗
天空晴朗
天空晴朗
天空晴朗
天空晴朗
天空晴朗
天空晴朗
天空晴朗
天空晴朗
能见度
10 km+
10 km+
10 km+
10 km+
10 km+
10 km+
10 km+
10 km+
10 km+
天花板
-
-
-
-
-
-
-
-
-
120°
120°
120°
120°
120°
120°
120°
120°
120°
120°
120°
120°
120°
120°
120°
120°
120°
120°
速度
3 kt
3 kt
3 kt
3 kt
3 kt
3 kt
3 kt
3 kt
3 kt
阵风
温度/星期日

原版的

TAF EBAW 180500Z 1806/1815 12003KT CAVOK

TAF 's Gravenwezel heliport

's Gravenwezel heliport是,比利时中的直升机场。 该机场位于纬度51,24694和经度4,54278。 本场的ICAO机场代码为EBAS。 机场在Bruxelles FIR中。

该航空气象观测是针对安特衛普國際機場在2024年7月18日 07:00, 当地时间进行的。 从2024年7月18日 08:00到2024年7月18日 17:00, 当地时间有效.

预报

  • 在星期四 08:00和17:00之间

    • 风: 风来自120°方向,速度为3 kt。
    • CAVOK: 天气为CAVOK。这意味着在5.000 ft或MSA(最低安全高度)以下(以较高者为准)以下没有云。这也意味着没有观测到积雨云或高耸的积云,可见度为10 km 或者更多或更高。此外,不会有雾,降雨或其他重要天气。

白天

今天,太阳从05:48升起,在21:48降落。 这适用于's Gravenwezel heliport,世界夏令时可能有所不同。 当地时间与世界标准时间之间的时差为+2 小时。 夏令时目前正在进行中。

报告变更